Time;durP1;ratioP1;P1;durP2;ratioP2;P2;SDS_P1;SDS_P2;PMS_P1;PMS_P2;Temp;Humidity;BMP_temperature;BMP_pressure;BME280_temperature;BME280_humidity;BME280_pressure;Samples;Min_cycle;Max_cycle;Signal;HPM_P1;HPM_P2
2021/03/03 00:01:46;;;;;;;25.95;15.38;;;1.60;99.90;;;;;;5067705;28;20037;-74
2021/03/03 00:04:12;;;;;;;26.65;14.50;;;1.60;99.90;;;;;;5065975;28;20154;-75
2021/03/03 00:06:39;;;;;;;29.90;18.52;;;1.50;99.90;;;;;;5062558;28;20493;-73
2021/03/03 00:09:05;;;;;;;33.67;19.75;;;1.50;99.90;;;;;;5071899;28;20044;-71
2021/03/03 00:11:31;;;;;;;34.08;20.27;;;1.50;99.90;;;;;;5067235;28;20029;-78
2021/03/03 00:13:57;;;;;;;31.95;19.95;;;1.50;99.90;;;;;;5053261;28;20143;-75
2021/03/03 00:16:23;;;;;;;27.17;17.40;;;1.50;99.90;;;;;;5069200;28;20041;-77
2021/03/03 00:18:49;;;;;;;28.67;15.77;;;1.40;99.90;;;;;;5066321;28;20048;-76
2021/03/03 00:21:14;;;;;;;32.42;17.90;;;1.40;99.90;;;;;;5070605;28;20052;-74
2021/03/03 00:23:40;;;;;;;27.63;16.77;;;1.40;99.90;;;;;;5071262;28;20127;-74
2021/03/03 00:26:06;;;;;;;25.13;14.30;;;1.40;99.90;;;;;;5071073;28;20040;-75
2021/03/03 00:28:32;;;;;;;22.13;14.60;;;1.40;99.90;;;;;;5067351;28;20039;-75
2021/03/03 00:30:57;;;;;;;27.67;16.60;;;1.30;99.90;;;;;;5072023;28;20112;-77
2021/03/03 00:33:23;;;;;;;28.30;16.20;;;1.30;99.90;;;;;;5067322;28;20426;-75
2021/03/03 00:35:49;;;;;;;26.38;16.83;;;1.30;99.90;;;;;;5069417;28;20429;-72
2021/03/03 00:38:17;;;;;;;27.88;16.15;;;1.20;99.90;;;;;;5064037;28;20067;-73
2021/03/03 00:40:42;;;;;;;27.80;17.95;;;1.20;99.90;;;;;;5070376;28;20041;-74
2021/03/03 00:43:08;;;;;;;29.80;17.95;;;1.20;99.90;;;;;;5071386;28;20106;-73
2021/03/03 00:45:34;;;;;;;29.13;18.13;;;1.20;99.90;;;;;;5072523;28;20051;-76
2021/03/03 00:48:00;;;;;;;31.10;19.27;;;1.20;99.90;;;;;;5058174;28;20119;-74
2021/03/03 00:50:26;;;;;;;36.45;22.25;;;1.20;99.90;;;;;;5060346;28;20048;-75
2021/03/03 00:52:52;;;;;;;42.95;23.98;;;1.20;99.90;;;;;;5070723;28;20037;-76
2021/03/03 00:55:17;;;;;;;34.70;20.75;;;1.20;99.90;;;;;;5066326;28;20033;-75
2021/03/03 00:57:44;;;;;;;32.35;21.08;;;1.20;99.90;;;;;;5071396;28;20037;-76
2021/03/03 01:00:10;;;;;;;38.00;21.58;;;1.20;99.90;;;;;;5065806;28;20041;-77
2021/03/03 01:02:36;;;;;;;35.80;20.77;;;1.20;99.90;;;;;;5071212;28;20044;-76
2021/03/03 01:05:02;;;;;;;31.35;19.60;;;1.20;99.90;;;;;;5063091;28;20543;-76
2021/03/03 01:07:27;;;;;;;;;;;1.30;99.90;;;;;;5070434;28;20036;-78
2021/03/03 01:09:53;;;;;;;33.65;21.90;;;1.20;99.90;;;;;;5071815;28;20274;-73
2021/03/03 01:12:19;;;;;;;40.20;22.88;;;1.20;99.90;;;;;;5066234;28;20080;-76
2021/03/03 01:14:45;;;;;;;36.30;21.17;;;1.20;99.90;;;;;;5070170;28;20040;-75
2021/03/03 01:17:11;;;;;;;37.15;20.65;;;1.20;99.90;;;;;;5069836;28;20112;-76
2021/03/03 01:19:36;;;;;;;36.05;22.40;;;1.20;99.90;;;;;;5069945;28;20081;-75
2021/03/03 01:22:02;;;;;;;37.03;22.83;;;1.10;99.90;;;;;;5068611;28;20053;-76
2021/03/03 01:24:28;;;;;;;50.33;27.52;;;1.10;99.90;;;;;;5068202;28;20055;-75
2021/03/03 01:26:54;;;;;;;56.63;30.75;;;1.10;99.90;;;;;;5069665;28;20407;-74
2021/03/03 01:29:19;;;;;;;45.97;27.13;;;1.10;99.90;;;;;;5069405;28;20041;-77
2021/03/03 01:31:45;;;;;;;51.90;30.10;;;1.20;99.90;;;;;;5070078;28;20044;-77
2021/03/03 01:34:11;;;;;;;40.08;23.70;;;1.20;99.90;;;;;;5070526;28;20098;-75
2021/03/03 01:36:37;;;;;;;42.72;25.58;;;1.20;99.90;;;;;;5063194;28;20032;-74
2021/03/03 01:39:04;;;;;;;39.00;24.33;;;1.20;99.90;;;;;;5071055;28;20045;-74
2021/03/03 01:41:30;;;;;;;38.80;22.77;;;1.20;99.90;;;;;;5068745;28;20039;-75
2021/03/03 01:43:56;;;;;;;44.08;25.63;;;1.20;99.90;;;;;;5066588;28;20458;-75
2021/03/03 01:46:22;;;;;;;54.85;28.65;;;1.20;99.90;;;;;;5068888;28;20063;-75
2021/03/03 01:48:48;;;;;;;52.30;28.15;;;1.10;99.90;;;;;;5067852;28;20110;-75
2021/03/03 01:51:15;;;;;;;50.08;28.85;;;1.10;99.90;;;;;;5068194;28;20470;-73
2021/03/03 01:53:41;;;;;;;51.58;29.48;;;1.20;99.90;;;;;;5070657;28;20054;-77
2021/03/03 01:56:07;;;;;;;45.40;26.50;;;1.20;99.90;;;;;;5068847;28;20036;-73
2021/03/03 01:58:33;;;;;;;51.38;27.38;;;1.20;99.90;;;;;;5044258;28;20055;-75
2021/03/03 02:00:58;;;;;;;47.38;26.42;;;1.20;99.90;;;;;;5071080;28;20397;-76
2021/03/03 02:03:24;;;;;;;43.65;25.60;;;1.10;99.90;;;;;;5062122;28;20032;-77
2021/03/03 02:05:54;;;;;;;40.65;23.25;;;1.10;99.90;;;;;;5052933;28;20048;-78
2021/03/03 02:08:25;;;;;;;42.45;24.15;;;1.10;99.90;;;;;;5068589;28;20040;-76
2021/03/03 02:11:03;;;;;;;41.05;23.35;;;1.20;99.90;;;;;;5085596;28;20439;-77
2021/03/03 02:13:41;;;;;;;44.53;23.80;;;1.10;99.90;;;;;;5062547;28;20043;-75
2021/03/03 02:16:10;;;;;;;46.08;26.63;;;1.00;99.90;;;;;;5069673;28;20055;-75
2021/03/03 02:18:37;;;;;;;41.92;23.92;;;1.00;99.90;;;;;;5067352;28;20111;-74
2021/03/03 02:21:08;;;;;;;43.88;23.40;;;1.00;99.90;;;;;;5069759;28;20098;-71
2021/03/03 02:23:56;;;;;;;45.05;25.25;;;1.00;99.90;;;;;;5069750;28;20080;-76
2021/03/03 02:26:33;;;;;;;51.58;29.17;;;1.00;99.90;;;;;;5069032;28;20481;-74
2021/03/03 02:29:01;;;;;;;54.75;29.50;;;1.00;99.90;;;;;;5065994;28;20355;-76
2021/03/03 02:31:28;;;;;;;42.90;23.42;;;1.00;99.90;;;;;;5069400;28;20067;-76
2021/03/03 02:33:54;;;;;;;51.75;28.60;;;1.00;99.90;;;;;;5068530;28;20033;-76
2021/03/03 02:36:22;;;;;;;46.00;27.63;;;1.00;99.90;;;;;;5066364;28;20033;-77
2021/03/03 02:38:48;;;;;;;42.08;24.00;;;1.00;99.90;;;;;;5070428;28;20049;-73
2021/03/03 02:41:16;;;;;;;45.75;26.52;;;1.00;99.90;;;;;;5066059;28;20041;-78
2021/03/03 02:43:42;;;;;;;54.20;29.52;;;1.00;99.90;;;;;;5070372;28;20104;-77
2021/03/03 02:46:09;;;;;;;48.40;30.42;;;1.00;99.90;;;;;;5068410;28;20074;-75
2021/03/03 02:48:35;;;;;;;51.45;30.27;;;1.00;99.90;;;;;;5056846;28;20037;-78
2021/03/03 02:51:01;;;;;;;59.42;34.17;;;1.00;99.90;;;;;;5067238;28;20438;-75
2021/03/03 02:53:27;;;;;;;;;;;1.00;99.90;;;;;;5056221;28;20036;-72
2021/03/03 02:55:53;;;;;;;58.75;30.98;;;1.00;99.90;;;;;;5069631;28;19974;-76
2021/03/03 02:58:22;;;;;;;55.22;31.08;;;1.00;99.90;;;;;;5051130;28;20029;-76
2021/03/03 03:00:52;;;;;;;57.55;30.70;;;1.00;99.90;;;;;;5062061;28;20028;-76
2021/03/03 03:03:43;;;;;;;59.53;29.13;;;1.00;99.90;;;;;;5083456;28;20035;-72
2021/03/03 03:06:23;;;;;;;58.13;30.50;;;1.00;99.90;;;;;;5060044;28;20130;-72
2021/03/03 03:08:51;;;;;;;57.85;31.52;;;0.90;99.90;;;;;;5069212;28;20044;-75
2021/03/03 03:11:20;;;;;;;66.82;33.40;;;0.90;99.90;;;;;;5067995;28;20240;-70
2021/03/03 03:13:49;;;;;;;85.15;39.65;;;0.90;99.90;;;;;;5069472;28;20039;-74
2021/03/03 03:16:16;;;;;;;65.05;33.50;;;0.90;99.90;;;;;;5068530;28;20037;-72
2021/03/03 03:18:57;;;;;;;70.53;37.35;;;0.90;99.90;;;;;;5061876;28;20094;-73
2021/03/03 03:21:29;;;;;;;63.60;33.40;;;0.90;99.90;;;;;;5068390;28;20045;-73
2021/03/03 03:23:56;;;;;;;64.18;33.38;;;0.80;99.90;;;;;;5069140;28;20056;-74
2021/03/03 03:26:24;;;;;;;74.18;40.72;;;0.80;99.90;;;;;;5068422;28;20044;-75
2021/03/03 03:28:50;;;;;;;86.05;43.95;;;0.80;99.90;;;;;;5064158;28;20454;-77
2021/03/03 03:31:17;;;;;;;81.43;33.47;;;0.80;99.90;;;;;;5055514;28;20120;-74
2021/03/03 03:33:44;;;;;;;62.13;34.78;;;0.80;99.90;;;;;;5068253;28;20499;-75
2021/03/03 03:36:10;;;;;;;70.88;35.03;;;0.80;99.90;;;;;;5067871;28;20052;-76
2021/03/03 03:38:35;;;;;;;65.60;32.75;;;0.80;99.90;;;;;;5068122;28;20067;-76
2021/03/03 03:41:04;;;;;;;66.45;34.83;;;0.80;99.90;;;;;;5056887;28;20112;-75
2021/03/03 03:43:32;;;;;;;77.85;39.70;;;0.80;99.90;;;;;;5067500;28;20379;-74
2021/03/03 03:46:00;;;;;;;69.70;36.50;;;0.80;99.90;;;;;;5065341;28;20116;-73
2021/03/03 03:48:28;;;;;;;60.35;34.42;;;0.80;99.90;;;;;;5065640;28;20448;-77
2021/03/03 03:50:55;;;;;;;72.35;37.70;;;0.80;99.90;;;;;;5067846;28;20040;-75
2021/03/03 03:53:22;;;;;;;69.68;35.53;;;0.80;99.90;;;;;;5080613;28;20040;-75
2021/03/03 03:55:48;;;;;;;65.75;34.55;;;0.70;99.90;;;;;;5067833;28;20033;-73
2021/03/03 03:58:14;;;;;;;66.78;35.05;;;0.70;99.90;;;;;;5068335;28;20086;-74
2021/03/03 04:00:40;;;;;;;65.68;33.90;;;0.70;99.90;;;;;;5068533;28;20047;-74
2021/03/03 04:03:06;;;;;;;59.28;35.30;;;0.70;99.90;;;;;;5067343;28;20068;-74
2021/03/03 04:05:32;;;;;;;73.47;37.33;;;0.70;99.90;;;;;;5050401;28;20051;-74
2021/03/03 04:07:58;;;;;;;85.97;40.85;;;0.60;99.90;;;;;;5067743;28;20420;-76
2021/03/03 04:10:28;;;;;;;87.65;41.55;;;0.60;99.90;;;;;;5065812;28;20478;-76
2021/03/03 04:12:55;;;;;;;73.40;35.25;;;0.60;99.90;;;;;;5068223;28;20044;-77
2021/03/03 04:15:21;;;;;;;55.55;30.42;;;0.70;99.90;;;;;;5070857;28;20341;-76
2021/03/03 04:17:47;;;;;;;74.97;37.92;;;0.70;99.90;;;;;;5072266;28;20040;-74
2021/03/03 04:20:15;;;;;;;61.72;32.58;;;0.60;99.90;;;;;;5070803;28;20472;-74
2021/03/03 04:22:41;;;;;;;72.80;35.58;;;0.60;99.90;;;;;;5071928;28;20036;-74
2021/03/03 04:25:10;;;;;;;80.38;40.33;;;0.60;99.90;;;;;;5068279;28;20088;-75
2021/03/03 04:27:36;;;;;;;61.80;32.58;;;0.60;99.90;;;;;;5072405;28;20154;-73
2021/03/03 04:30:08;;;;;;;67.07;34.85;;;0.60;99.90;;;;;;5071771;28;20049;-72
2021/03/03 04:32:34;;;;;;;51.97;28.48;;;0.50;99.90;;;;;;5069391;28;20044;-76
2021/03/03 04:35:01;;;;;;;72.03;35.30;;;0.60;99.90;;;;;;5072758;28;20029;-75
2021/03/03 04:37:26;;;;;;;;;;;0.50;99.90;;;;;;5071285;28;20041;-75
2021/03/03 04:39:52;;;;;;;58.17;32.03;;;0.50;99.90;;;;;;5072835;28;19923;-77
2021/03/03 04:42:18;;;;;;;49.47;29.80;;;0.40;99.90;;;;;;5069149;28;20028;-75
2021/03/03 04:44:44;;;;;;;43.63;27.67;;;0.40;99.90;;;;;;5070987;28;20071;-75
2021/03/03 04:47:10;;;;;;;51.95;30.00;;;0.40;99.90;;;;;;5060662;28;20061;-76
2021/03/03 04:49:36;;;;;;;;;;;0.30;99.90;;;;;;5072643;28;20072;-75
2021/03/03 04:52:02;;;;;;;44.78;26.08;;;0.30;99.90;;;;;;5067726;28;20357;-74
2021/03/03 04:54:28;;;;;;;49.30;27.27;;;0.30;99.90;;;;;;5066222;28;20033;-78
2021/03/03 04:56:54;;;;;;;61.92;32.95;;;0.30;99.90;;;;;;5071241;28;20542;-77
2021/03/03 04:59:20;;;;;;;52.65;29.63;;;0.20;99.90;;;;;;5068022;28;20055;-77
2021/03/03 05:01:45;;;;;;;59.28;32.30;;;0.20;99.90;;;;;;5069515;28;20045;-72
2021/03/03 05:04:11;;;;;;;60.75;32.80;;;0.20;99.90;;;;;;5069345;28;20493;-78
2021/03/03 05:06:37;;;;;;;55.55;30.30;;;0.20;99.90;;;;;;5071804;28;20451;-72
2021/03/03 05:09:03;;;;;;;68.15;36.92;;;0.20;99.90;;;;;;5069971;28;20058;-74
2021/03/03 05:11:29;;;;;;;50.30;29.45;;;0.20;99.90;;;;;;5070420;28;20082;-72
2021/03/03 05:13:55;;;;;;;59.80;31.55;;;0.20;99.90;;;;;;5061763;28;20124;-73
2021/03/03 05:16:20;;;;;;;54.72;30.08;;;0.20;99.90;;;;;;5067847;28;20097;-76
2021/03/03 05:18:46;;;;;;;52.22;29.60;;;0.20;99.90;;;;;;5067653;28;20111;-75
2021/03/03 05:21:12;;;;;;;60.67;34.13;;;0.20;99.90;;;;;;5066465;28;20044;-72
2021/03/03 05:23:38;;;;;;;;;;;0.10;99.90;;;;;;5082241;28;20044;-73
2021/03/03 05:26:05;;;;;;;53.05;29.40;;;0.10;99.90;;;;;;5085105;28;19988;-76
2021/03/03 05:28:33;;;;;;;55.90;30.13;;;0.10;99.90;;;;;;5071219;28;20063;-74
2021/03/03 05:30:59;;;;;;;56.30;32.75;;;0.10;99.90;;;;;;5071094;28;20111;-76
2021/03/03 05:33:31;;;;;;;70.70;35.05;;;0.10;99.90;;;;;;5069477;28;20048;-79
2021/03/03 05:35:59;;;;;;;57.13;31.38;;;0.10;99.90;;;;;;5085323;28;20039;-75
2021/03/03 05:38:25;;;;;;;67.30;34.95;;;0.10;99.90;;;;;;5070416;28;20139;-73
2021/03/03 05:40:54;;;;;;;70.38;38.63;;;0.10;99.90;;;;;;5065031;28;20037;-75
2021/03/03 05:43:20;;;;;;;67.47;37.00;;;0.10;99.90;;;;;;5066892;28;20032;-74
2021/03/03 05:45:48;;;;;;;69.13;36.67;;;0.10;99.90;;;;;;5069858;28;20068;-72
2021/03/03 05:48:21;;;;;;;57.95;33.55;;;0.20;99.90;;;;;;5073845;28;20039;-73
2021/03/03 05:50:52;;;;;;;67.68;35.95;;;0.10;99.90;;;;;;5071170;28;20036;-74
2021/03/03 05:53:20;;;;;;;70.07;35.25;;;0.10;99.90;;;;;;5068410;28;20047;-74
2021/03/03 05:55:46;;;;;;;75.70;36.90;;;0.20;99.90;;;;;;5069875;28;20048;-75
2021/03/03 05:58:12;;;;;;;58.65;33.72;;;0.10;99.90;;;;;;5070551;28;20044;-73
2021/03/03 06:00:39;;;;;;;73.07;38.33;;;0.10;99.90;;;;;;5052142;28;20047;-75
2021/03/03 06:03:05;;;;;;;60.20;36.00;;;0.20;99.90;;;;;;5068768;28;20043;-77
2021/03/03 06:05:37;;;;;;;58.00;31.13;;;0.10;99.90;;;;;;5068662;28;20040;-74
2021/03/03 06:08:04;;;;;;;57.17;31.67;;;0.10;99.90;;;;;;5068722;28;20464;-75
2021/03/03 06:10:30;;;;;;;48.92;27.35;;;0.10;99.90;;;;;;5067455;28;20486;-77
2021/03/03 06:12:57;;;;;;;56.95;33.47;;;0.10;99.90;;;;;;5068548;28;20047;-72
2021/03/03 06:15:23;;;;;;;61.92;34.15;;;0.10;99.90;;;;;;5068055;28;20510;-72
2021/03/03 06:17:49;;;;;;;53.35;30.45;;;0.10;99.90;;;;;;5068939;28;20040;-78
2021/03/03 06:20:15;;;;;;;77.80;38.25;;;0.00;99.90;;;;;;5069774;28;20112;-76
2021/03/03 06:22:41;;;;;;;79.57;42.05;;;0.10;99.90;;;;;;5068575;28;20036;-73
2021/03/03 06:25:18;;;;;;;81.60;43.03;;;0.10;99.90;;;;;;5069396;28;20065;-73
2021/03/03 06:27:44;;;;;;;73.57;40.05;;;0.10;99.90;;;;;;5069457;28;20432;-75
2021/03/03 06:30:20;;;;;;;69.05;37.70;;;0.20;99.90;;;;;;5070558;28;20040;-72
2021/03/03 06:32:56;;;;;;;68.38;37.88;;;0.30;99.90;;;;;;5068317;28;20028;-76
2021/03/03 06:35:34;;;;;;;67.80;36.75;;;0.30;99.90;;;;;;5069600;28;20033;-74
2021/03/03 06:38:02;;;;;;;68.90;34.33;;;0.40;99.90;;;;;;5064662;28;20059;-78
2021/03/03 06:40:30;;;;;;;55.10;32.50;;;0.40;99.90;;;;;;5059882;28;20037;-80
2021/03/03 06:42:56;;;;;;;61.95;34.72;;;0.40;99.90;;;;;;5056169;28;20469;-78
2021/03/03 06:45:32;;;;;;;67.25;34.95;;;0.80;99.90;;;;;;5067632;28;20044;-75
2021/03/03 06:47:59;;;;;;;64.10;36.85;;;1.00;99.90;;;;;;5061401;28;20695;-76
2021/03/03 06:50:32;;;;;;;86.18;46.60;;;0.70;99.90;;;;;;5048164;28;20087;-77
2021/03/03 06:52:58;;;;;;;73.20;43.28;;;0.70;99.90;;;;;;5056971;28;20143;-76
2021/03/03 06:55:24;;;;;;;77.25;42.75;;;1.40;99.90;;;;;;5065304;28;20158;-79
2021/03/03 06:57:50;;;;;;;96.45;52.55;;;1.10;99.90;;;;;;5055037;28;20033;-75
2021/03/03 07:00:43;;;;;;;95.60;50.67;;;1.30;99.90;;;;;;5066543;28;20068;-73
2021/03/03 07:03:29;;;;;;;86.95;49.95;;;1.50;99.90;;;;;;5056488;28;20058;-74
2021/03/03 07:05:55;;;;;;;86.70;47.03;;;1.70;99.90;;;;;;5064815;28;20083;-72
2021/03/03 07:08:21;;;;;;;93.70;51.03;;;2.50;99.90;;;;;;5061913;28;20032;-75
2021/03/03 07:10:48;;;;;;;97.57;48.58;;;2.10;99.90;;;;;;5050890;28;20476;-73
2021/03/03 07:13:14;;;;;;;85.00;46.08;;;2.30;99.90;;;;;;5059020;28;20039;-74
2021/03/03 07:15:40;;;;;;;78.93;44.70;;;2.40;99.90;;;;;;5060551;28;20474;-73
2021/03/03 07:18:32;;;;;;;61.88;36.20;;;2.60;99.90;;;;;;5062815;28;20075;-71
2021/03/03 07:21:00;;;;;;;61.05;37.28;;;2.90;99.90;;;;;;5061421;28;20117;-76
2021/03/03 07:23:47;;;;;;;62.42;35.65;;;3.10;99.90;;;;;;5067073;28;20051;-77
2021/03/03 07:26:15;;;;;;;60.92;34.00;;;3.30;99.90;;;;;;5065925;28;20071;-74
2021/03/03 07:28:42;;;;;;;54.05;31.75;;;3.50;99.90;;;;;;5065371;28;20117;-75
2021/03/03 07:31:09;;;;;;;57.72;33.50;;;3.60;99.90;;;;;;5060059;28;20556;-75
2021/03/03 07:33:35;;;;;;;51.13;31.17;;;3.70;99.90;;;;;;5039879;28;20438;-75
2021/03/03 07:36:03;;;;;;;;;;;3.80;99.90;;;;;;5069261;28;20321;-75
2021/03/03 07:38:39;;;;;;;45.58;29.60;;;3.80;99.90;;;;;;5063452;28;19973;-73
2021/03/03 07:41:13;;;;;;;50.10;30.65;;;3.90;99.90;;;;;;5071498;28;20036;-72
2021/03/03 07:43:44;;;;;;;48.13;30.88;;;4.00;99.90;;;;;;5064744;28;20043;-71
2021/03/03 07:46:11;;;;;;;46.60;29.42;;;4.00;99.90;;;;;;5061702;28;20037;-73
2021/03/03 07:48:40;;;;;;;49.42;29.83;;;4.10;99.90;;;;;;5057251;28;20207;-71
2021/03/03 07:51:08;;;;;;;47.92;31.48;;;4.10;99.90;;;;;;5070621;28;20036;-73
2021/03/03 07:53:39;;;;;;;47.25;29.55;;;4.10;99.90;;;;;;5070071;28;20119;-73
2021/03/03 07:56:07;;;;;;;46.50;30.17;;;4.30;99.90;;;;;;5064909;28;20044;-76
2021/03/03 07:58:34;;;;;;;46.45;29.00;;;4.30;99.90;;;;;;5064415;28;20044;-73
2021/03/03 08:01:01;;;;;;;46.45;27.98;;;4.30;99.90;;;;;;5071206;28;20032;-74
2021/03/03 08:03:44;;;;;;;47.25;27.90;;;4.30;99.90;;;;;;5084915;28;20280;-74
2021/03/03 08:06:23;;;;;;;47.65;31.58;;;4.30;99.90;;;;;;5070499;28;20469;-74
2021/03/03 08:09:09;;;;;;;47.63;32.17;;;4.40;99.90;;;;;;5058755;28;20064;-74
2021/03/03 08:11:45;;;;;;;52.25;32.70;;;4.50;99.90;;;;;;5055965;28;20040;-75
2021/03/03 08:14:29;;;;;;;55.00;30.80;;;4.60;99.90;;;;;;5065966;28;20146;-72
2021/03/03 08:16:57;;;;;;;49.95;31.10;;;4.70;99.90;;;;;;5067939;28;20035;-73
2021/03/03 08:19:49;;;;;;;50.08;31.00;;;4.70;99.90;;;;;;5068226;28;20043;-75
2021/03/03 08:22:15;;;;;;;52.63;30.23;;;4.90;99.90;;;;;;5064823;28;20082;-72
2021/03/03 08:24:40;;;;;;;46.35;30.13;;;4.90;99.90;;;;;;5062983;28;20045;-72
2021/03/03 08:27:29;;;;;;;49.58;30.13;;;4.90;99.90;;;;;;5067663;28;20048;-73
2021/03/03 08:30:13;;;;;;;47.40;29.77;;;5.00;99.90;;;;;;5063970;28;20087;-72
2021/03/03 08:32:39;;;;;;;49.88;32.42;;;5.10;99.90;;;;;;5067496;28;20063;-74
2021/03/03 08:35:06;;;;;;;47.53;29.92;;;5.10;99.90;;;;;;5068589;28;20426;-74
2021/03/03 08:37:34;;;;;;;49.60;29.90;;;5.10;99.90;;;;;;5066724;28;20528;-72
2021/03/03 08:40:00;;;;;;;47.05;29.92;;;5.60;99.90;;;;;;5060423;28;20033;-71
2021/03/03 08:42:28;;;;;;;48.63;30.55;;;5.10;99.90;;;;;;5057094;28;20116;-74
2021/03/03 08:45:14;;;;;;;49.88;31.55;;;5.70;99.90;;;;;;5068552;28;20036;-73
2021/03/03 08:47:52;;;;;;;49.53;31.83;;;5.20;99.90;;;;;;5068736;28;20055;-74
2021/03/03 08:50:31;;;;;;;52.67;33.63;;;5.20;99.90;;;;;;5068692;28;20049;-74
2021/03/03 08:53:26;;;;;;;44.25;32.25;;;5.20;99.90;;;;;;5056666;28;20138;-74
2021/03/03 08:55:55;;;;;;;50.17;31.45;;;5.20;99.90;;;;;;5060617;28;20047;-76
2021/03/03 08:58:33;;;;;;;53.90;35.03;;;5.30;99.90;;;;;;5083220;28;20041;-72
2021/03/03 09:01:00;;;;;;;52.75;32.53;;;5.30;99.90;;;;;;5085523;28;20060;-76
2021/03/03 09:03:26;;;;;;;50.90;31.45;;;5.60;99.90;;;;;;5087837;28;20159;-74
2021/03/03 09:05:55;;;;;;;47.28;34.78;;;5.30;99.90;;;;;;5068646;28;20041;-80
2021/03/03 09:08:23;;;;;;;48.20;32.15;;;5.40;99.90;;;;;;5067292;28;20438;-78
2021/03/03 09:10:50;;;;;;;48.70;31.65;;;5.40;99.90;;;;;;5059987;28;20471;-75
2021/03/03 09:13:22;;;;;;;52.28;32.38;;;5.50;99.90;;;;;;5055070;28;20045;-78
2021/03/03 09:16:21;;;;;;;48.33;31.52;;;5.60;99.90;;;;;;5052376;28;20049;-75
2021/03/03 09:19:05;;;;;;;48.03;32.00;;;5.70;99.90;;;;;;5027793;28;20175;-77
2021/03/03 09:21:31;;;;;;;52.95;32.92;;;6.30;99.90;;;;;;5059302;28;20072;-74
2021/03/03 09:24:09;;;;;;;52.92;32.67;;;5.90;99.90;;;;;;5067103;28;20033;-74
2021/03/03 09:26:36;;;;;;;50.33;32.63;;;6.00;99.90;;;;;;5075761;28;20174;-75
2021/03/03 09:29:03;;;;;;;49.13;30.05;;;6.10;99.90;;;;;;5057399;28;20045;-76
2021/03/03 09:31:34;;;;;;;52.53;33.78;;;6.10;99.90;;;;;;5061929;28;20421;-72
2021/03/03 09:34:01;;;;;;;46.55;31.98;;;6.20;99.90;;;;;;5066904;28;20032;-71
2021/03/03 09:36:27;;;;;;;50.08;30.70;;;6.30;99.90;;;;;;5066484;28;20043;-74
2021/03/03 09:38:55;;;;;;;51.80;32.88;;;6.40;99.90;;;;;;5053602;28;20040;-73
2021/03/03 09:41:21;;;;;;;49.08;32.92;;;6.50;99.90;;;;;;5065919;28;20406;-75
2021/03/03 09:44:07;;;;;;;50.42;31.20;;;6.50;99.90;;;;;;5059056;28;20398;-71
2021/03/03 09:46:51;;;;;;;51.58;33.03;;;6.60;99.90;;;;;;5065161;28;20056;-73
2021/03/03 09:49:31;;;;;;;49.33;32.28;;;6.70;99.90;;;;;;5055401;28;20123;-73
2021/03/03 09:51:59;;;;;;;53.13;34.65;;;6.80;99.90;;;;;;5062357;28;20041;-80
2021/03/03 09:54:35;;;;;;;50.72;33.60;;;6.70;99.90;;;;;;5064158;28;20147;-76
2021/03/03 09:57:13;;;;;;;51.85;32.53;;;6.70;99.90;;;;;;5055231;28;20040;-74
2021/03/03 09:59:46;;;;;;;48.90;31.40;;;6.80;99.90;;;;;;5065654;28;20043;-75
2021/03/03 10:02:15;;;;;;;48.10;33.17;;;6.80;99.90;;;;;;5078745;28;20427;-75
2021/03/03 10:04:43;;;;;;;52.83;32.03;;;6.90;99.90;;;;;;5061542;28;20421;-74
2021/03/03 10:07:21;;;;;;;49.80;31.50;;;7.00;99.90;;;;;;5061260;28;20032;-77
2021/03/03 10:09:58;;;;;;;52.22;31.60;;;7.00;99.90;;;;;;5059764;28;20051;-77
2021/03/03 10:12:26;;;;;;;;;;;6.90;99.90;;;;;;5061935;28;20039;-76
2021/03/03 10:14:53;;;;;;;49.63;33.33;;;6.90;99.90;;;;;;5060661;28;19927;-74
2021/03/03 10:17:28;;;;;;;55.35;33.72;;;6.80;99.90;;;;;;5056758;28;20482;-74
2021/03/03 10:19:54;;;;;;;56.85;35.05;;;6.70;99.90;;;;;;5081791;28;20028;-72
2021/03/03 10:22:20;;;;;;;55.40;34.10;;;6.60;99.90;;;;;;5065141;28;20075;-72
2021/03/03 10:24:58;;;;;;;56.42;35.67;;;6.60;99.90;;;;;;5065631;28;20075;-74
2021/03/03 10:27:25;;;;;;;51.20;33.42;;;6.50;99.90;;;;;;5065276;28;20536;-74
2021/03/03 10:29:50;;;;;;;48.92;34.83;;;6.40;99.90;;;;;;5065592;28;20043;-74
2021/03/03 10:32:17;;;;;;;54.33;35.22;;;6.30;99.90;;;;;;5065566;28;20032;-74
2021/03/03 10:34:43;;;;;;;57.80;35.22;;;6.20;99.90;;;;;;5064344;28;20552;-74
2021/03/03 10:37:22;;;;;;;52.78;32.33;;;6.10;99.90;;;;;;5061133;28;20140;-74
2021/03/03 10:39:50;;;;;;;47.63;31.50;;;6.10;99.90;;;;;;5056911;28;20040;-77
2021/03/03 10:42:22;;;;;;;45.17;30.42;;;6.00;99.90;;;;;;5058144;28;20490;-74
2021/03/03 10:44:52;;;;;;;40.08;26.98;;;6.00;99.90;;;;;;5058690;28;20040;-74
2021/03/03 10:47:49;;;;;;;37.03;25.98;;;5.90;99.90;;;;;;5062219;28;20192;-73
2021/03/03 10:50:16;;;;;;;44.08;27.17;;;5.80;99.90;;;;;;5065486;28;20051;-73
2021/03/03 10:53:13;;;;;;;46.53;30.77;;;5.60;99.90;;;;;;5058081;28;20334;-72
2021/03/03 10:55:41;;;;;;;52.58;35.90;;;5.40;99.90;;;;;;5064925;28;20056;-75
2021/03/03 10:58:09;;;;;;;51.30;35.13;;;5.40;99.90;;;;;;5066121;28;20489;-75
2021/03/03 11:01:01;;;;;;;51.95;29.42;;;5.10;99.90;;;;;;5062521;28;20064;-75
2021/03/03 11:03:28;;;;;;;44.90;28.58;;;5.00;99.90;;;;;;5067146;28;20146;-74
2021/03/03 11:05:59;;;;;;;55.85;29.45;;;4.90;99.90;;;;;;5061068;28;20484;-72
2021/03/03 11:08:27;;;;;;;48.67;28.27;;;4.80;99.90;;;;;;5061256;28;20417;-74
2021/03/03 11:11:05;;;;;;;50.47;29.80;;;4.70;99.90;;;;;;5056753;28;20033;-75
2021/03/03 11:13:33;;;;;;;43.13;27.00;;;4.70;99.90;;;;;;5064081;28;20032;-79
2021/03/03 11:15:58;;;;;;;46.05;27.10;;;4.70;99.90;;;;;;5062061;28;20116;-74
2021/03/03 11:18:25;;;;;;;51.25;27.25;;;4.80;99.90;;;;;;5062172;28;20437;-74
2021/03/03 11:20:51;;;;;;;51.33;28.83;;;4.80;99.90;;;;;;5059701;28;20079;-73
2021/03/03 11:23:17;;;;;;;41.35;25.10;;;4.80;99.90;;;;;;5066076;28;20067;-73
2021/03/03 11:25:42;;;;;;;43.50;27.45;;;4.80;99.90;;;;;;5065251;28;20459;-71
2021/03/03 11:28:08;;;;;;;36.40;24.15;;;4.80;99.90;;;;;;5062697;28;20040;-75
2021/03/03 11:30:34;;;;;;;40.30;27.33;;;4.80;99.90;;;;;;5069463;28;20044;-74
2021/03/03 11:33:01;;;;;;;41.47;25.27;;;4.90;99.90;;;;;;5067995;28;20043;-72
2021/03/03 11:35:26;;;;;;;42.42;27.08;;;4.90;99.90;;;;;;5050990;28;20071;-72
2021/03/03 11:37:52;;;;;;;42.33;24.73;;;4.90;99.90;;;;;;5067529;28;20068;-70
2021/03/03 11:40:18;;;;;;;50.45;30.70;;;4.90;99.90;;;;;;5067047;28;20500;-72
2021/03/03 11:42:44;;;;;;;45.42;26.27;;;4.80;99.90;;;;;;5066529;28;20041;-71
2021/03/03 11:45:11;;;;;;;37.97;23.70;;;4.80;99.90;;;;;;5083807;28;20043;-72
2021/03/03 11:47:37;;;;;;;48.75;29.80;;;4.80;99.90;;;;;;5056130;28;20058;-70
2021/03/03 11:50:05;;;;;;;51.50;28.75;;;4.80;99.90;;;;;;5066027;28;20546;-71
2021/03/03 11:52:31;;;;;;;48.47;31.05;;;4.80;99.90;;;;;;5060027;28;20028;-71
2021/03/03 11:54:57;;;;;;;47.78;27.60;;;5.20;99.90;;;;;;5068451;28;20123;-72
2021/03/03 11:57:23;;;;;;;45.25;28.45;;;4.80;99.90;;;;;;5068530;28;20323;-72
2021/03/03 11:59:52;;;;;;;50.97;31.15;;;4.90;99.90;;;;;;5068320;28;20486;-70
2021/03/03 12:02:18;;;;;;;49.75;29.52;;;4.80;99.90;;;;;;5067651;28;20044;-72
2021/03/03 12:04:44;;;;;;;44.63;29.92;;;4.80;99.90;;;;;;5067957;28;20036;-71
2021/03/03 12:07:10;;;;;;;47.35;29.63;;;4.90;99.90;;;;;;5066436;28;20378;-70
2021/03/03 12:09:36;;;;;;;59.88;32.25;;;4.90;99.90;;;;;;5065090;28;20048;-73
2021/03/03 12:12:04;;;;;;;43.33;26.52;;;5.00;99.90;;;;;;5067730;28;20543;-72
2021/03/03 12:14:29;;;;;;;48.80;27.80;;;5.10;99.90;;;;;;5057861;28;20036;-70
2021/03/03 12:16:55;;;;;;;42.45;26.85;;;5.30;99.90;;;;;;5057206;28;20040;-71
2021/03/03 12:19:21;;;;;;;53.33;31.98;;;5.80;99.90;;;;;;5066683;28;20540;-74
2021/03/03 12:21:47;;;;;;;45.40;27.63;;;5.40;99.90;;;;;;5056609;28;20119;-71
2021/03/03 12:24:13;;;;;;;50.38;29.77;;;5.30;99.90;;;;;;5064130;28;20108;-72
2021/03/03 12:26:39;;;;;;;49.78;29.48;;;5.40;99.90;;;;;;5067779;28;20079;-70
2021/03/03 12:29:05;;;;;;;46.80;29.02;;;5.40;99.90;;;;;;5065576;28;20520;-72
2021/03/03 12:31:31;;;;;;;51.03;29.83;;;5.50;99.90;;;;;;5069269;28;20047;-72
2021/03/03 12:33:58;;;;;;;42.50;26.50;;;5.40;99.90;;;;;;5062370;28;20040;-70
2021/03/03 12:36:23;;;;;;;;;;;5.40;99.90;;;;;;5066058;28;20051;-72
2021/03/03 12:38:49;;;;;;;43.97;29.42;;;5.70;99.90;;;;;;5068968;28;19964;-72
2021/03/03 12:41:15;;;;;;;46.85;27.83;;;5.50;99.90;;;;;;5066565;28;20044;-72
2021/03/03 12:43:41;;;;;;;49.33;32.30;;;5.40;99.90;;;;;;5058133;28;20040;-73
2021/03/03 12:46:07;;;;;;;45.72;27.42;;;5.40;99.90;;;;;;5057901;28;20076;-71
2021/03/03 12:48:33;;;;;;;52.05;32.78;;;5.40;99.90;;;;;;5060010;28;20060;-71
2021/03/03 12:50:59;;;;;;;48.40;31.38;;;5.50;99.90;;;;;;5068461;28;20113;-72